Time;durP1;ratioP1;P1;durP2;ratioP2;P2;SDS_P1;SDS_P2;PMS_P1;PMS_P2;Temp;Humidity;BMP_temperature;BMP_pressure;BME280_temperature;BME280_humidity;BME280_pressure;Samples;Min_cycle;Max_cycle;Signal;HPM_P1;HPM_P2
2021/03/25 00:00:55;;;;;;;15.25;7.88;;;3.90;99.90;;;;;;5095693;28;20550;-89
2021/03/25 00:03:21;;;;;;;15.70;9.38;;;4.00;99.90;;;;;;5096071;28;20236;-88
2021/03/25 00:05:50;;;;;;;11.77;8.68;;;3.80;99.90;;;;;;5094744;28;20224;-89
2021/03/25 00:08:19;;;;;;;13.75;8.20;;;3.80;99.90;;;;;;5094594;28;20244;-88
2021/03/25 00:10:46;;;;;;;11.88;10.15;;;3.70;99.90;;;;;;5095305;28;20274;-89
2021/03/25 00:13:13;;;;;;;10.05;6.93;;;3.70;99.90;;;;;;5094389;28;20664;-89
2021/03/25 00:15:40;;;;;;;9.25;7.53;;;3.70;99.90;;;;;;5095590;28;20208;-85
2021/03/25 00:18:07;;;;;;;15.88;8.48;;;3.70;99.90;;;;;;5095404;28;20698;-87
2021/03/25 00:20:34;;;;;;;10.57;8.93;;;3.70;99.90;;;;;;5094267;28;20226;-89
2021/03/25 00:23:01;;;;;;;12.82;8.10;;;3.60;99.90;;;;;;5095354;28;20296;-89
2021/03/25 00:25:30;;;;;;;12.70;9.50;;;3.50;99.90;;;;;;5094614;28;20295;-89
2021/03/25 00:27:57;;;;;;;14.43;9.13;;;3.50;99.90;;;;;;5095361;28;20240;-89
2021/03/25 00:30:26;;;;;;;13.07;8.70;;;3.50;99.90;;;;;;5095240;28;20288;-89
2021/03/25 00:32:53;;;;;;;13.07;9.57;;;3.40;99.90;;;;;;5095346;28;20287;-85
2021/03/25 00:35:21;;;;;;;10.00;7.72;;;3.40;99.90;;;;;;5094917;28;20201;-87
2021/03/25 00:37:47;;;;;;;11.52;8.70;;;3.40;99.90;;;;;;5093941;28;20205;-88
2021/03/25 00:40:15;;;;;;;12.48;7.88;;;3.30;99.90;;;;;;5093947;28;20246;-88
2021/03/25 00:42:42;;;;;;;11.30;8.45;;;3.30;99.90;;;;;;5094843;28;20782;-88
2021/03/25 00:45:11;;;;;;;12.55;9.63;;;3.30;99.90;;;;;;5094927;28;20366;-87
2021/03/25 00:47:38;;;;;;;12.20;8.85;;;3.20;99.90;;;;;;5095049;28;20314;-87
2021/03/25 00:50:06;;;;;;;12.23;8.02;;;3.30;99.90;;;;;;5094759;28;20660;-86
2021/03/25 00:52:34;;;;;;;14.27;7.65;;;3.30;99.90;;;;;;5095875;28;20656;-86
2021/03/25 00:55:00;;;;;;;10.70;7.63;;;3.40;99.90;;;;;;5093951;28;20629;-86
2021/03/25 00:57:27;;;;;;;10.45;8.65;;;3.30;99.90;;;;;;5095260;28;20236;-87
2021/03/25 00:59:53;;;;;;;14.00;9.35;;;3.90;99.90;;;;;;5095116;28;20228;-88
2021/03/25 01:02:20;;;;;;;10.45;7.10;;;3.20;99.90;;;;;;5096078;28;20656;-88
2021/03/25 01:04:48;;;;;;;10.95;7.35;;;3.20;99.90;;;;;;5093544;28;20225;-86
2021/03/25 01:07:22;;;;;;;12.23;8.18;;;3.20;99.90;;;;;;5097257;28;20303;-87
2021/03/25 01:09:49;;;;;;;10.38;7.90;;;3.20;99.90;;;;;;5074055;28;20301;-87
2021/03/25 01:12:16;;;;;;;11.10;8.35;;;3.20;99.90;;;;;;5095733;28;20254;-87
2021/03/25 01:14:42;;;;;;;9.20;6.38;;;3.20;99.90;;;;;;5095529;28;20604;-86
2021/03/25 01:17:08;;;;;;;8.90;7.07;;;3.70;99.90;;;;;;5094565;28;20296;-86
2021/03/25 01:19:35;;;;;;;10.38;6.75;;;3.20;99.90;;;;;;5094847;28;20236;-87
2021/03/25 01:22:02;;;;;;;9.55;8.02;;;3.10;99.90;;;;;;5078093;28;20296;-86
2021/03/25 01:24:29;;;;;;;10.55;7.35;;;3.10;99.90;;;;;;5092777;28;20323;-87
2021/03/25 01:26:56;;;;;;;12.77;7.43;;;3.00;99.90;;;;;;5093742;28;20295;-87
2021/03/25 01:29:23;;;;;;;16.38;8.60;;;3.20;99.90;;;;;;5094088;28;20585;-87
2021/03/25 01:31:50;;;;;;;11.52;7.47;;;3.00;99.90;;;;;;5094048;28;20293;-86
2021/03/25 01:34:20;;;;;;;18.52;8.95;;;3.10;99.90;;;;;;5094029;28;20303;-87
2021/03/25 01:36:47;;;;;;;12.73;7.05;;;3.10;99.90;;;;;;5093901;28;20287;-86
2021/03/25 01:39:14;;;;;;;9.02;6.50;;;3.00;99.90;;;;;;5077164;28;20284;-87
2021/03/25 01:41:41;;;;;;;8.73;6.50;;;3.20;99.90;;;;;;5073586;28;20566;-87
2021/03/25 01:44:31;;;;;;;13.43;8.00;;;3.20;99.90;;;;;;5073585;28;20292;-87
2021/03/25 01:46:57;;;;;;;11.40;7.68;;;3.10;99.90;;;;;;5073326;28;20610;-87
2021/03/25 01:49:23;;;;;;;11.05;7.22;;;3.00;99.90;;;;;;5073485;28;20300;-87
2021/03/25 01:51:59;;;;;;;10.43;7.68;;;2.90;99.90;;;;;;5083538;28;20243;-87
2021/03/25 01:54:48;;;;;;;10.23;8.55;;;3.00;99.90;;;;;;5092133;28;20271;-87
2021/03/25 01:57:35;;;;;;;10.45;7.30;;;2.90;99.90;;;;;;5093719;28;20288;-87
2021/03/25 02:00:24;;;;;;;14.70;7.68;;;2.80;99.90;;;;;;5093389;28;20261;-87
2021/03/25 02:03:12;;;;;;;10.52;7.40;;;2.80;99.90;;;;;;5093644;28;20304;-86
2021/03/25 02:06:20;;;;;;;8.15;6.03;;;2.80;99.90;;;;;;5093720;28;20319;-87
2021/03/25 02:09:02;;;;;;;9.98;6.50;;;2.70;99.90;;;;;;5071095;28;20544;-88
2021/03/25 02:11:39;;;;;;;10.02;7.13;;;3.00;99.90;;;;;;5071828;28;20197;-87
2021/03/25 02:14:14;;;;;;;10.45;6.90;;;3.30;99.90;;;;;;5073319;28;20205;-87
2021/03/25 02:16:46;;;;;;;6.15;5.13;;;2.60;99.90;;;;;;5073803;28;20208;-87
2021/03/25 02:19:27;;;;;;;10.80;7.25;;;2.50;99.90;;;;;;5073489;28;20202;-87
2021/03/25 02:22:13;;;;;;;13.02;6.10;;;3.30;99.90;;;;;;5072950;28;20201;-87
2021/03/25 02:24:47;;;;;;;12.52;7.78;;;2.50;99.90;;;;;;5073208;28;20232;-86
2021/03/25 02:27:42;;;;;;;9.27;7.53;;;2.50;99.90;;;;;;5074682;28;20232;-87
2021/03/25 02:30:12;;;;;;;12.00;7.00;;;2.50;99.90;;;;;;5077977;28;20261;-88
2021/03/25 02:32:45;;;;;;;11.05;6.97;;;2.40;99.90;;;;;;5084544;28;20217;-87
2021/03/25 02:35:17;;;;;;;9.35;6.72;;;2.40;99.90;;;;;;5094843;28;20244;-88
2021/03/25 02:37:46;;;;;;;14.80;6.72;;;2.40;99.90;;;;;;5089316;28;20232;-86
2021/03/25 02:40:17;;;;;;;11.88;6.72;;;3.70;99.90;;;;;;5085506;28;20239;-87
2021/03/25 02:42:46;;;;;;;11.10;7.03;;;2.50;99.90;;;;;;5094728;28;20213;-87
2021/03/25 02:45:18;;;;;;;10.07;6.72;;;3.70;99.90;;;;;;5097063;28;20256;-87
2021/03/25 02:47:47;;;;;;;15.77;6.95;;;2.60;99.90;;;;;;5085722;28;20273;-88
2021/03/25 02:50:20;;;;;;;14.05;7.63;;;2.60;99.90;;;;;;5076453;28;20202;-86
2021/03/25 02:52:50;;;;;;;10.80;7.05;;;2.60;99.90;;;;;;5074137;28;20317;-87
2021/03/25 02:55:18;;;;;;;11.43;7.40;;;2.60;99.90;;;;;;5071454;28;20664;-88
2021/03/25 02:57:55;;;;;;;9.73;6.25;;;2.60;99.90;;;;;;5072550;28;20278;-86
2021/03/25 03:00:25;;;;;;;14.55;8.27;;;2.60;99.90;;;;;;5072718;28;20229;-88
2021/03/25 03:02:57;;;;;;;15.75;7.25;;;2.60;99.90;;;;;;5073323;28;20210;-88
2021/03/25 03:05:27;;;;;;;10.23;6.85;;;2.50;99.90;;;;;;5072596;28;20316;-87
2021/03/25 03:07:58;;;;;;;10.98;7.22;;;3.40;99.90;;;;;;5072263;28;20237;-88
2021/03/25 03:10:29;;;;;;;8.43;5.82;;;2.50;99.90;;;;;;5071977;28;20285;-87
2021/03/25 03:12:58;;;;;;;9.00;7.15;;;2.70;99.90;;;;;;5073059;28;20332;-88
2021/03/25 03:15:27;;;;;;;7.78;5.40;;;2.60;99.90;;;;;;5072675;28;20599;-86
2021/03/25 03:18:01;;;;;;;13.77;7.88;;;2.40;99.90;;;;;;5072388;28;20208;-87
2021/03/25 03:20:32;;;;;;;11.98;7.30;;;2.40;99.90;;;;;;5052959;28;20272;-88
2021/03/25 03:23:00;;;;;;;12.40;7.47;;;2.80;99.90;;;;;;5049023;28;20613;-88
2021/03/25 03:25:27;;;;;;;14.90;8.25;;;2.40;99.90;;;;;;5047115;28;20592;-88
2021/03/25 03:27:59;;;;;;;10.98;6.82;;;2.40;99.90;;;;;;5059121;28;20202;-87
2021/03/25 03:30:31;;;;;;;12.98;7.25;;;2.40;99.90;;;;;;5072994;28;20236;-87
2021/03/25 03:33:04;;;;;;;10.80;6.85;;;2.30;99.90;;;;;;5074924;28;20201;-87
2021/03/25 03:35:35;;;;;;;8.63;7.53;;;2.60;99.90;;;;;;5076306;28;20296;-89
2021/03/25 03:38:06;;;;;;;12.70;8.48;;;2.40;99.90;;;;;;5056948;28;20241;-88
2021/03/25 03:40:36;;;;;;;8.45;6.20;;;2.30;99.90;;;;;;5055732;28;20320;-88
2021/03/25 03:43:07;;;;;;;9.30;7.38;;;2.40;99.90;;;;;;5070268;28;20255;-88
2021/03/25 03:45:37;;;;;;;14.02;9.63;;;2.30;99.90;;;;;;5075826;28;20291;-88
2021/03/25 03:48:12;;;;;;;7.85;6.28;;;2.40;99.90;;;;;;5071970;28;20202;-89
2021/03/25 03:50:45;;;;;;;12.73;8.18;;;2.30;99.90;;;;;;5055572;28;20210;-87
2021/03/25 03:53:11;;;;;;;12.18;7.28;;;3.10;99.90;;;;;;5054630;28;20325;-88
2021/03/25 03:55:38;;;;;;;6.50;5.82;;;2.30;99.90;;;;;;5056661;28;20252;-88
2021/03/25 03:58:13;;;;;;;10.65;7.30;;;3.20;99.90;;;;;;5055868;28;20760;-89
2021/03/25 04:00:44;;;;;;;13.00;7.63;;;2.40;99.90;;;;;;5056099;28;20296;-88
2021/03/25 04:03:21;;;;;;;8.93;6.28;;;2.30;99.90;;;;;;5056184;28;20225;-88
2021/03/25 04:05:54;;;;;;;8.63;7.05;;;2.40;99.90;;;;;;5056865;28;20320;-88
2021/03/25 04:08:27;;;;;;;10.07;6.97;;;2.40;99.90;;;;;;5054458;28;20242;-87
2021/03/25 04:11:00;;;;;;;11.60;6.35;;;2.40;99.90;;;;;;5055491;28;20735;-89
2021/03/25 04:13:31;;;;;;;13.40;7.63;;;2.40;99.90;;;;;;5067266;28;20335;-88
2021/03/25 04:15:59;;;;;;;9.75;6.50;;;2.40;99.90;;;;;;5075082;28;20562;-89
2021/03/25 04:18:34;;;;;;;9.98;7.03;;;2.40;99.90;;;;;;5075570;28;20248;-88
2021/03/25 04:21:06;;;;;;;11.00;6.53;;;2.40;99.90;;;;;;5068881;28;20201;-88
2021/03/25 04:23:35;;;;;;;11.07;7.07;;;2.40;99.90;;;;;;5054102;28;20206;-88
2021/03/25 04:26:10;;;;;;;13.32;7.18;;;3.30;99.90;;;;;;5054879;28;20230;-84
2021/03/25 04:28:40;;;;;;;10.50;7.20;;;2.30;99.90;;;;;;5054954;28;20229;-88
2021/03/25 04:31:08;;;;;;;9.57;6.72;;;2.20;99.90;;;;;;5055038;28;20292;-89
2021/03/25 04:33:38;;;;;;;10.75;7.28;;;2.20;99.90;;;;;;5055601;28;20202;-88
2021/03/25 04:36:11;;;;;;;9.73;5.32;;;3.60;99.90;;;;;;5054622;28;20240;-89
2021/03/25 04:38:40;;;;;;;9.45;6.25;;;2.30;99.90;;;;;;5054141;28;20207;-89
2021/03/25 04:41:08;;;;;;;10.35;6.25;;;2.20;99.90;;;;;;5054692;28;20238;-89
2021/03/25 04:43:36;;;;;;;8.73;6.78;;;2.20;99.90;;;;;;5054584;28;20210;-86
2021/03/25 04:46:31;;;;;;;8.45;6.65;;;2.20;99.90;;;;;;5053612;28;20819;-88
2021/03/25 04:49:04;;;;;;;8.93;6.55;;;2.30;99.90;;;;;;5038903;28;20302;-88
2021/03/25 04:51:30;;;;;;;9.85;6.97;;;2.20;99.90;;;;;;5060431;28;20237;-87
2021/03/25 04:54:10;;;;;;;8.40;7.00;;;2.10;99.90;;;;;;5073067;28;20236;-88
2021/03/25 04:56:39;;;;;;;19.80;9.20;;;2.10;99.90;;;;;;5074698;28;20228;-87
2021/03/25 04:59:06;;;;;;;8.82;7.57;;;2.00;99.90;;;;;;5074461;28;20205;-88
2021/03/25 05:01:34;;;;;;;7.35;6.25;;;3.80;99.90;;;;;;5075556;28;20338;-86
2021/03/25 05:04:03;;;;;;;8.10;7.05;;;1.90;99.90;;;;;;5056401;28;20717;-89
2021/03/25 05:06:47;;;;;;;8.20;6.60;;;2.10;99.90;;;;;;5056571;28;20309;-88
2021/03/25 05:09:15;;;;;;;12.68;7.82;;;2.00;99.90;;;;;;5053653;28;20240;-87
2021/03/25 05:11:42;;;;;;;11.57;6.43;;;3.60;99.90;;;;;;5054420;28;20289;-87
2021/03/25 05:14:16;;;;;;;10.88;7.50;;;2.00;99.90;;;;;;5070438;28;20677;-88
2021/03/25 05:16:55;;;;;;;15.55;7.00;;;2.00;99.90;;;;;;5074260;28;20267;-88
2021/03/25 05:19:34;;;;;;;10.80;6.75;;;3.00;99.90;;;;;;5059767;28;20281;-86
2021/03/25 05:22:09;;;;;;;7.40;6.25;;;3.80;99.90;;;;;;5054176;28;20241;-88
2021/03/25 05:24:41;;;;;;;9.85;6.43;;;2.20;99.90;;;;;;5052447;28;20302;-89
2021/03/25 05:27:11;;;;;;;11.75;7.22;;;2.30;99.90;;;;;;5054027;28;20206;-88
2021/03/25 05:29:39;;;;;;;13.30;7.50;;;2.30;99.90;;;;;;5053238;28;20301;-88
2021/03/25 05:32:09;;;;;;;8.50;5.93;;;2.30;99.90;;;;;;5053755;28;20237;-88
2021/03/25 05:34:39;;;;;;;12.60;7.60;;;2.40;99.90;;;;;;5054041;28;20595;-88
2021/03/25 05:37:08;;;;;;;11.65;6.85;;;2.40;99.90;;;;;;5073737;28;20622;-86
2021/03/25 05:39:35;;;;;;;14.38;8.95;;;2.40;99.90;;;;;;5072146;28;20201;-88
2021/03/25 05:42:14;;;;;;;12.38;7.95;;;2.50;99.90;;;;;;5063504;28;20650;-88
2021/03/25 05:45:06;;;;;;;11.55;7.22;;;2.40;99.90;;;;;;5053494;28;20269;-89
2021/03/25 05:47:56;;;;;;;11.65;8.05;;;2.40;99.90;;;;;;5053835;28;20241;-89
2021/03/25 05:50:34;;;;;;;8.73;7.03;;;2.60;99.90;;;;;;5053206;28;20284;-88
2021/03/25 05:53:11;;;;;;;13.00;7.60;;;2.50;99.90;;;;;;5053288;28;20283;-89
2021/03/25 05:55:58;;;;;;;9.38;7.85;;;2.70;99.90;;;;;;5052920;28;20668;-88
2021/03/25 05:58:35;;;;;;;12.38;9.60;;;2.60;99.90;;;;;;5053621;28;20659;-88
2021/03/25 06:01:34;;;;;;;12.07;7.47;;;2.60;99.90;;;;;;5053372;28;20285;-89
2021/03/25 06:04:04;;;;;;;13.02;6.90;;;2.80;99.90;;;;;;5062535;28;20260;-88
2021/03/25 06:06:43;;;;;;;16.23;8.07;;;3.30;99.90;;;;;;5072952;28;20799;-88
2021/03/25 06:09:18;;;;;;;14.32;7.78;;;3.00;99.90;;;;;;5071664;28;20288;-88
2021/03/25 06:11:52;;;;;;;9.68;6.90;;;3.10;99.90;;;;;;5072621;28;20298;-87
2021/03/25 06:14:35;;;;;;;9.88;6.80;;;3.30;99.90;;;;;;5072599;28;20293;-86
2021/03/25 06:17:18;;;;;;;8.48;6.65;;;3.30;99.90;;;;;;5074756;28;20292;-89
2021/03/25 06:20:19;;;;;;;10.60;7.63;;;3.50;99.90;;;;;;5064211;28;20206;-80
2021/03/25 06:22:55;;;;;;;8.68;6.93;;;3.60;99.90;;;;;;5053736;28;20225;-88
2021/03/25 06:25:42;;;;;;;11.60;6.75;;;3.70;99.90;;;;;;5052172;28;20316;-87
2021/03/25 06:28:36;;;;;;;11.15;7.88;;;3.70;99.90;;;;;;5052635;28;20335;-89
2021/03/25 06:31:35;;;;;;;10.02;6.72;;;3.90;99.90;;;;;;5052637;28;20206;-87
2021/03/25 06:34:06;;;;;;;9.90;6.80;;;4.10;99.90;;;;;;5053716;28;20198;-90
2021/03/25 06:36:44;;;;;;;12.07;8.60;;;4.10;99.90;;;;;;5053095;28;20345;-90
2021/03/25 06:39:23;;;;;;;9.63;7.47;;;4.20;99.90;;;;;;5052991;28;20205;-91
2021/03/25 06:41:59;;;;;;;9.88;6.93;;;4.40;99.90;;;;;;5059012;28;20239;-91
2021/03/25 06:44:33;;;;;;;12.10;7.47;;;4.40;99.90;;;;;;5076697;28;20190;-88
2021/03/25 06:47:07;;;;;;;11.35;6.75;;;4.70;99.90;;;;;;5081369;23;20238;-87
2021/03/25 06:49:43;;;;;;;12.82;8.15;;;4.90;99.90;;;;;;5037744;28;20305;-87
2021/03/25 06:52:25;;;;;;;8.40;7.55;;;5.10;99.90;;;;;;5050684;28;20205;-83
2021/03/25 06:54:55;;;;;;;8.82;6.57;;;5.40;99.90;;;;;;5069254;28;20202;-85
2021/03/25 06:57:22;;;;;;;8.00;7.05;;;5.50;99.90;;;;;;5065866;28;20287;-84
2021/03/25 06:59:54;;;;;;;12.95;9.02;;;5.70;99.90;;;;;;5053197;28;20293;-85
2021/03/25 07:02:27;;;;;;;10.82;7.93;;;5.80;99.90;;;;;;5052562;28;20300;-82
2021/03/25 07:04:58;;;;;;;10.30;8.00;;;6.30;99.90;;;;;;5052417;28;20217;-86
2021/03/25 07:07:29;;;;;;;10.73;7.65;;;6.20;99.90;;;;;;5052918;28;20202;-83
2021/03/25 07:09:57;;;;;;;11.95;7.85;;;6.30;99.90;;;;;;5056048;28;20736;-86
2021/03/25 07:12:26;;;;;;;10.48;6.60;;;6.60;99.90;;;;;;5036533;28;20261;-83
2021/03/25 07:14:53;;;;;;;10.48;6.95;;;6.70;99.90;;;;;;5036263;28;20254;-83
2021/03/25 07:17:34;;;;;;;13.13;7.95;;;6.90;99.90;;;;;;5051716;28;20248;-84
2021/03/25 07:20:11;;;;;;;7.90;6.77;;;7.10;99.90;;;;;;5056187;28;20320;-84
2021/03/25 07:22:39;;;;;;;10.40;7.38;;;7.30;99.90;;;;;;5053577;28;20946;-86
2021/03/25 07:25:19;;;;;;;11.13;7.28;;;7.50;99.90;;;;;;5054468;28;20309;-85
2021/03/25 07:27:46;;;;;;;7.63;6.03;;;7.60;99.90;;;;;;5054653;28;20644;-86
2021/03/25 07:30:16;;;;;;;9.02;6.20;;;7.70;99.90;;;;;;5055335;28;20222;-87
2021/03/25 07:32:48;;;;;;;9.18;6.07;;;7.80;99.90;;;;;;5054512;28;20592;-82
2021/03/25 07:35:25;;;;;;;7.03;5.37;;;8.10;99.90;;;;;;5052797;28;20600;-83
2021/03/25 07:37:52;;;;;;;8.07;5.40;;;8.10;99.90;;;;;;5054533;28;20439;-83
2021/03/25 07:40:31;;;;;;;4.50;4.10;;;8.30;99.90;;;;;;5053914;28;20531;-89
2021/03/25 07:43:13;;;;;;;8.73;6.20;;;8.50;99.90;;;;;;5053357;28;20448;-83
2021/03/25 07:45:40;;;;;;;7.27;5.77;;;8.70;99.90;;;;;;5052750;28;20844;-83
2021/03/25 07:48:20;;;;;;;5.97;5.03;;;8.80;99.90;;;;;;5055067;28;20441;-83
2021/03/25 07:50:48;;;;;;;6.73;5.17;;;9.00;99.90;;;;;;5053152;28;20464;-84
2021/03/25 07:53:25;;;;;;;5.90;4.97;;;9.10;99.90;;;;;;5053858;28;20506;-84
2021/03/25 07:56:05;;;;;;;7.73;5.50;;;9.10;99.90;;;;;;5056086;28;20483;-84
2021/03/25 07:58:38;;;;;;;6.03;5.27;;;9.30;99.90;;;;;;5047138;28;20896;-76
2021/03/25 08:01:07;;;;;;;6.70;4.57;;;9.50;99.90;;;;;;5049151;28;20499;-82
2021/03/25 08:03:44;;;;;;;6.90;4.90;;;9.70;99.90;;;;;;5055268;28;20448;-83
2021/03/25 08:06:17;;;;;;;6.93;5.50;;;9.80;99.90;;;;;;5054238;28;20538;-81
2021/03/25 08:08:45;;;;;;;6.47;5.10;;;10.00;99.50;;;;;;5053078;28;20252;-86
2021/03/25 08:11:16;;;;;;;10.13;5.97;;;10.10;99.10;;;;;;5054994;28;20521;-86
2021/03/25 08:13:48;;;;;;;7.30;4.90;;;10.40;98.90;;;;;;5055209;28;20484;-85
2021/03/25 08:16:16;;;;;;;5.60;5.10;;;10.50;98.80;;;;;;5055108;28;21028;-87
2021/03/25 08:19:13;;;;;;;6.20;5.57;;;10.50;98.20;;;;;;5055032;28;20527;-85
2021/03/25 08:21:45;;;;;;;6.67;4.87;;;10.60;98.10;;;;;;5053989;28;20878;-85
2021/03/25 08:24:28;;;;;;;5.83;4.67;;;10.80;97.50;;;;;;5052916;28;21030;-84
2021/03/25 08:27:23;;;;;;;7.70;4.67;;;10.90;97.20;;;;;;5054865;28;20943;-84
2021/03/25 08:30:01;;;;;;;6.17;4.20;;;11.00;97.30;;;;;;5054391;28;20532;-84
2021/03/25 08:32:41;;;;;;;6.30;4.50;;;11.20;97.10;;;;;;5052791;28;20441;-83
2021/03/25 08:35:18;;;;;;;6.27;4.60;;;11.30;96.60;;;;;;5053811;28;20504;-86
2021/03/25 08:38:09;;;;;;;5.37;3.80;;;11.50;95.70;;;;;;5054837;28;20445;-84
2021/03/25 08:40:41;;;;;;;4.87;4.27;;;11.60;95.20;;;;;;5051855;28;20511;-86
2021/03/25 08:43:18;;;;;;;6.37;4.80;;;11.80;95.20;;;;;;5053821;28;20973;-86
2021/03/25 08:45:50;;;;;;;6.10;5.50;;;11.90;94.30;;;;;;5050698;28;20575;-85
2021/03/25 08:48:21;;;;;;;5.70;5.07;;;12.00;94.00;;;;;;5053207;28;20978;-84
2021/03/25 08:50:51;;;;;;;6.43;4.50;;;12.10;93.50;;;;;;5050219;28;20498;-87
2021/03/25 08:53:34;;;;;;;3.87;3.57;;;12.10;93.60;;;;;;5053577;28;20770;-89
2021/03/25 08:56:05;;;;;;;9.17;5.90;;;12.20;93.40;;;;;;5052779;28;20536;-86
2021/03/25 08:58:35;;;;;;;7.80;3.73;;;12.30;93.90;;;;;;5054346;28;21136;-85
2021/03/25 09:01:05;;;;;;;7.30;4.67;;;12.40;93.00;;;;;;5054241;28;20449;-85
2021/03/25 09:03:37;;;;;;;5.53;4.30;;;12.50;92.80;;;;;;5054071;28;20953;-85
2021/03/25 09:06:08;;;;;;;6.30;4.07;;;12.70;92.40;;;;;;5053622;28;20521;-85
2021/03/25 09:08:37;;;;;;;5.50;4.23;;;12.70;91.90;;;;;;5052454;28;20660;-85
2021/03/25 09:11:06;;;;;;;5.00;4.50;;;12.80;92.20;;;;;;5054274;28;20876;-83
2021/03/25 09:13:37;;;;;;;5.73;4.30;;;12.90;91.40;;;;;;5053942;28;20292;-85
2021/03/25 09:16:11;;;;;;;5.03;3.90;;;13.20;91.90;;;;;;5054099;28;21022;-86
2021/03/25 09:18:43;;;;;;;5.87;5.00;;;13.30;91.10;;;;;;5053604;28;20456;-88
2021/03/25 09:21:13;;;;;;;5.33;4.00;;;13.40;91.00;;;;;;5052318;28;20464;-86
2021/03/25 09:23:46;;;;;;;8.17;4.43;;;13.50;91.30;;;;;;5052071;28;21026;-89
2021/03/25 09:26:52;;;;;;;5.20;4.07;;;13.60;90.50;;;;;;5053114;28;20487;-85
2021/03/25 09:29:23;;;;;;;6.77;4.30;;;13.70;91.00;;;;;;5050185;28;20554;-85
2021/03/25 09:32:34;;;;;;;5.83;4.67;;;13.90;90.60;;;;;;5050950;28;20574;-84
2021/03/25 09:35:04;;;;;;;5.57;4.20;;;14.00;90.30;;;;;;4971337;28;20861;-78
